createdAt,value
2022-11-19T00:02:02.566Z,9.30
2022-11-19T00:04:32.072Z,9.20
2022-11-19T00:06:59.940Z,9.20
2022-11-19T00:09:27.888Z,9.20
2022-11-19T00:12:13.482Z,9.20
2022-11-19T00:14:41.424Z,9.20
2022-11-19T00:17:09.317Z,9.20
2022-11-19T00:19:38.547Z,9.20
2022-11-19T00:22:06.440Z,9.20
2022-11-19T00:24:34.412Z,9.20
2022-11-19T00:27:02.317Z,9.20
2022-11-19T00:29:30.204Z,9.20
2022-11-19T00:31:58.226Z,9.20
2022-11-19T00:34:26.235Z,9.20
2022-11-19T00:36:55.538Z,9.10
2022-11-19T00:39:23.411Z,9.10
2022-11-19T00:41:51.294Z,9.10
2022-11-19T00:44:19.266Z,9.10
2022-11-19T00:46:47.173Z,9.10
2022-11-19T00:49:15.067Z,9.10
2022-11-19T00:51:43.136Z,9.10
2022-11-19T00:54:12.398Z,9.00
2022-11-19T00:56:40.362Z,9.00
2022-11-19T00:59:08.400Z,9.00
2022-11-19T01:01:36.395Z,9.00
2022-11-19T01:04:04.414Z,9.00
2022-11-19T01:06:32.335Z,9.00
2022-11-19T01:09:00.415Z,9.00
2022-11-19T01:11:31.705Z,8.90
2022-11-19T01:13:59.860Z,8.90
2022-11-19T01:16:30.239Z,9.00
2022-11-19T01:18:58.950Z,9.00
2022-11-19T01:21:29.247Z,8.90
2022-11-19T01:23:58.122Z,8.90
2022-11-19T01:26:26.549Z,8.90
2022-11-19T01:28:56.058Z,8.90
2022-11-19T01:31:25.544Z,8.90
2022-11-19T01:33:53.639Z,8.90
2022-11-19T01:36:23.708Z,8.90
2022-11-19T01:38:52.178Z,9.00
2022-11-19T01:41:20.635Z,9.00
2022-11-19T01:43:51.082Z,9.00
2022-11-19T01:46:22.405Z,9.00
2022-11-19T01:48:56.334Z,9.00
2022-11-19T01:51:26.748Z,9.00
2022-11-19T01:53:58.487Z,9.00
2022-11-19T01:56:27.066Z,9.00
2022-11-19T01:58:59.851Z,9.00
2022-11-19T02:01:30.410Z,9.10
2022-11-19T02:04:00.897Z,9.00
2022-11-19T02:06:29.800Z,9.00
2022-11-19T02:08:58.177Z,9.00
2022-11-19T02:11:52.397Z,9.00
2022-11-19T02:14:42.867Z,9.00
2022-11-19T02:17:19.385Z,9.00
2022-11-19T02:20:29.616Z,9.00
2022-11-19T02:23:24.094Z,9.00
2022-11-19T02:26:19.514Z,9.00
2022-11-19T02:28:51.289Z,9.00
2022-11-19T02:31:25.483Z,9.00
2022-11-19T02:33:57.316Z,9.00
2022-11-19T02:36:29.104Z,9.00
2022-11-19T02:39:03.676Z,9.00
2022-11-19T02:41:37.670Z,9.00
2022-11-19T02:44:28.262Z,9.00
2022-11-19T02:47:00.547Z,9.00
2022-11-19T02:49:33.034Z,9.00
2022-11-19T02:52:01.513Z,8.90
2022-11-19T02:54:29.489Z,9.00
2022-11-19T02:56:59.745Z,8.90
2022-11-19T02:59:52.207Z,9.00
2022-11-19T03:02:40.828Z,9.00
2022-11-19T03:05:11.791Z,9.00
2022-11-19T03:07:39.764Z,9.00
2022-11-19T03:10:11.186Z,9.00
2022-11-19T03:12:47.161Z,9.00
2022-11-19T03:15:44.483Z,9.00
2022-11-19T03:18:18.044Z,9.00
2022-11-19T03:20:52.095Z,9.00
2022-11-19T03:23:24.976Z,9.00
2022-11-19T03:25:57.879Z,9.00
2022-11-19T03:28:30.041Z,9.00
2022-11-19T03:31:01.011Z,9.00
2022-11-19T03:33:34.287Z,9.00
2022-11-19T03:36:08.504Z,9.00
2022-11-19T03:38:39.521Z,9.00
2022-11-19T03:41:08.989Z,9.10
2022-11-19T03:43:40.906Z,9.10
2022-11-19T03:46:14.241Z,9.00
2022-11-19T03:48:46.840Z,9.00
2022-11-19T03:51:18.680Z,9.00
2022-11-19T03:53:46.613Z,9.00
2022-11-19T03:56:17.571Z,9.00
2022-11-19T03:58:46.960Z,9.00
2022-11-19T04:01:15.239Z,9.00
2022-11-19T04:04:04.539Z,9.00
2022-11-19T04:06:32.637Z,9.00
2022-11-19T04:09:00.490Z,9.00
2022-11-19T04:11:28.388Z,9.00
2022-11-19T04:13:56.304Z,9.00
2022-11-19T04:16:24.187Z,9.00
2022-11-19T04:18:53.529Z,9.00
2022-11-19T04:21:21.379Z,9.00
2022-11-19T04:23:49.232Z,9.00
2022-11-19T04:26:17.115Z,9.00
2022-11-19T04:28:45.065Z,9.00
2022-11-19T04:31:17.632Z,9.00
2022-11-19T04:33:46.235Z,9.00
2022-11-19T04:36:15.477Z,9.00
2022-11-19T04:38:43.349Z,9.00
2022-11-19T04:41:11.253Z,9.00
2022-11-19T04:43:39.160Z,9.00
2022-11-19T04:46:07.508Z,9.00
2022-11-19T04:48:35.430Z,9.00
2022-11-19T04:51:03.289Z,9.00
2022-11-19T04:53:32.546Z,9.00
2022-11-19T04:56:00.411Z,9.00
2022-11-19T04:58:28.315Z,9.00
2022-11-19T05:00:56.224Z,8.90
2022-11-19T05:03:24.064Z,8.90
2022-11-19T05:05:51.946Z,8.90
2022-11-19T05:08:19.903Z,8.90
2022-11-19T05:10:49.162Z,8.90
2022-11-19T05:13:17.014Z,8.90
2022-11-19T05:15:44.900Z,8.90
2022-11-19T05:18:13.384Z,8.90
2022-11-19T05:20:41.370Z,8.90
2022-11-19T05:23:09.288Z,8.90
2022-11-19T05:25:37.206Z,8.90
2022-11-19T05:28:06.879Z,8.90
2022-11-19T05:30:36.152Z,8.90
2022-11-19T05:33:04.072Z,8.90
2022-11-19T05:35:32.187Z,8.90
2022-11-19T05:38:00.255Z,8.90
2022-11-19T05:40:28.211Z,8.90
2022-11-19T05:42:56.100Z,8.90
2022-11-19T05:45:25.336Z,8.90
2022-11-19T05:47:55.984Z,8.90
2022-11-19T05:50:24.031Z,8.90
2022-11-19T05:52:52.034Z,8.90
2022-11-19T05:55:20.805Z,8.80
2022-11-19T05:57:48.739Z,8.90
2022-11-19T06:00:17.859Z,8.90
2022-11-19T06:02:47.399Z,8.90
2022-11-19T06:05:15.552Z,8.90
2022-11-19T06:07:43.441Z,8.90
2022-11-19T06:10:11.832Z,8.90
2022-11-19T06:12:44.182Z,8.80
2022-11-19T06:15:13.804Z,8.90
2022-11-19T06:17:41.849Z,8.90
2022-11-19T06:20:11.923Z,8.90
2022-11-19T06:22:39.974Z,8.90
2022-11-19T06:25:09.154Z,8.90
2022-11-19T06:27:37.174Z,8.90
2022-11-19T06:30:05.999Z,8.90
2022-11-19T06:32:34.212Z,8.90
2022-11-19T06:35:02.210Z,8.90
2022-11-19T06:37:31.483Z,8.90
2022-11-19T06:39:59.351Z,8.90
2022-11-19T06:42:39.451Z,8.90
2022-11-19T06:45:09.795Z,8.90
2022-11-19T06:47:38.586Z,8.90
2022-11-19T06:50:07.600Z,8.90
2022-11-19T06:52:36.810Z,8.90
2022-11-19T06:55:05.446Z,8.90
2022-11-19T06:57:33.423Z,8.90
2022-11-19T07:00:01.600Z,8.90
2022-11-19T07:02:29.699Z,8.80
2022-11-19T07:04:57.598Z,8.80
2022-11-19T07:07:27.512Z,8.80
2022-11-19T07:09:56.847Z,8.90
2022-11-19T07:12:24.774Z,8.90
2022-11-19T07:14:52.694Z,8.90
2022-11-19T07:17:20.514Z,8.90
2022-11-19T07:19:48.436Z,8.90
2022-11-19T07:22:16.350Z,8.90
2022-11-19T07:24:44.825Z,8.90
2022-11-19T07:27:14.108Z,8.90
2022-11-19T07:29:41.994Z,8.90
2022-11-19T07:32:09.984Z,8.90
2022-11-19T07:34:37.917Z,9.00
2022-11-19T07:37:05.793Z,8.90
2022-11-19T07:39:33.695Z,9.00
2022-11-19T07:42:19.141Z,9.00
2022-11-19T07:44:52.193Z,9.00
2022-11-19T07:47:22.965Z,9.00
2022-11-19T07:49:50.881Z,9.00
2022-11-19T07:52:18.781Z,9.00
2022-11-19T07:54:46.670Z,9.00
2022-11-19T07:57:14.990Z,9.00
2022-11-19T07:59:42.936Z,9.00
2022-11-19T08:02:14.961Z,9.00
2022-11-19T08:04:42.971Z,9.00
2022-11-19T08:07:10.942Z,9.10
2022-11-19T08:09:38.923Z,9.10
2022-11-19T08:12:08.328Z,9.10
2022-11-19T08:14:36.259Z,9.20
2022-11-19T08:17:21.784Z,9.30
2022-11-19T08:19:51.015Z,9.30
2022-11-19T08:22:18.944Z,9.30
2022-11-19T08:24:46.910Z,9.30
2022-11-19T08:27:15.019Z,9.30
2022-11-19T08:29:42.901Z,9.40
2022-11-19T08:32:10.788Z,9.40
2022-11-19T08:34:38.745Z,9.60
2022-11-19T08:37:08.485Z,9.80
2022-11-19T08:39:36.509Z,9.90
2022-11-19T08:42:22.125Z,10.10
2022-11-19T08:44:50.079Z,10.10
2022-11-19T08:47:17.943Z,10.20
2022-11-19T08:49:45.844Z,10.20
2022-11-19T08:52:16.358Z,10.20
2022-11-19T08:54:44.256Z,10.40
2022-11-19T08:57:12.234Z,10.50
2022-11-19T08:59:40.094Z,10.60
2022-11-19T09:02:10.534Z,10.70
2022-11-19T09:04:38.430Z,10.80
2022-11-19T09:07:06.412Z,10.80
2022-11-19T09:09:35.761Z,10.70
2022-11-19T09:12:03.913Z,10.70
2022-11-19T09:14:31.850Z,10.80
2022-11-19T09:16:59.709Z,10.90
2022-11-19T09:19:27.692Z,11.00
2022-11-19T09:21:55.544Z,11.00
2022-11-19T09:24:23.407Z,11.00
2022-11-19T09:26:53.270Z,11.10
2022-11-19T09:29:21.478Z,11.30
2022-11-19T09:31:49.360Z,11.40
2022-11-19T09:34:17.579Z,11.50
2022-11-19T09:36:45.624Z,11.60
2022-11-19T09:39:13.664Z,11.80
2022-11-19T09:41:51.111Z,11.80
2022-11-19T09:45:01.471Z,11.80
2022-11-19T09:47:41.171Z,11.50
2022-11-19T09:50:17.770Z,11.40
2022-11-19T09:52:48.970Z,11.30
2022-11-19T09:55:20.597Z,11.20
2022-11-19T09:57:52.364Z,11.10
2022-11-19T10:00:24.644Z,11.10
2022-11-19T10:02:53.568Z,11.00
2022-11-19T10:05:31.557Z,11.00
2022-11-19T10:08:13.949Z,11.00
2022-11-19T10:10:43.795Z,11.00
2022-11-19T10:13:30.399Z,11.00
2022-11-19T10:16:09.810Z,11.10
2022-11-19T10:18:44.456Z,11.10
2022-11-19T10:21:18.847Z,11.20
2022-11-19T10:23:51.029Z,11.20
2022-11-19T10:26:23.953Z,11.20
2022-11-19T10:28:57.051Z,11.10
2022-11-19T10:31:37.371Z,11.10
2022-11-19T10:34:12.063Z,11.00
2022-11-19T10:36:44.179Z,10.90
2022-11-19T10:39:19.335Z,10.90
2022-11-19T10:41:53.213Z,10.80
2022-11-19T10:44:40.216Z,10.70
2022-11-19T10:47:16.086Z,10.70
2022-11-19T10:49:45.225Z,10.60
2022-11-19T10:52:27.076Z,10.50
2022-11-19T10:55:00.259Z,10.40
2022-11-19T10:57:32.483Z,10.40
2022-11-19T11:00:02.382Z,10.40
2022-11-19T11:02:45.181Z,10.30
2022-11-19T11:05:16.141Z,10.30
2022-11-19T11:07:53.573Z,10.20
2022-11-19T11:10:37.789Z,10.20
2022-11-19T11:13:34.613Z,10.20
2022-11-19T11:16:08.339Z,10.20
2022-11-19T11:18:40.764Z,10.10
2022-11-19T11:21:12.701Z,10.10
2022-11-19T11:23:50.807Z,10.40
2022-11-19T11:26:24.920Z,10.80
2022-11-19T11:29:01.688Z,11.00
2022-11-19T11:31:35.347Z,11.10
2022-11-19T11:34:06.602Z,11.20
2022-11-19T11:36:36.825Z,11.20
2022-11-19T11:39:06.936Z,11.30
2022-11-19T11:44:28.520Z,11.30
2022-11-19T11:46:59.063Z,11.30
2022-11-19T11:49:35.179Z,11.20
2022-11-19T11:52:08.302Z,11.10
2022-11-19T11:54:36.658Z,11.00
2022-11-19T11:57:17.742Z,10.90
2022-11-19T11:59:46.861Z,10.90
2022-11-19T12:02:22.858Z,10.80
2022-11-19T12:04:53.532Z,10.70
2022-11-19T12:07:38.712Z,10.70
2022-11-19T12:10:20.379Z,10.60
2022-11-19T12:13:12.246Z,10.60
2022-11-19T12:15:50.452Z,10.50
2022-11-19T12:18:28.595Z,10.50
2022-11-19T12:21:08.786Z,10.40
2022-11-19T12:23:59.674Z,10.40
2022-11-19T12:26:39.607Z,10.40
2022-11-19T12:29:22.763Z,10.30
2022-11-19T12:32:23.068Z,10.30
2022-11-19T12:35:01.667Z,10.30
2022-11-19T12:37:45.393Z,10.30
2022-11-19T12:40:25.009Z,10.30
2022-11-19T12:43:03.970Z,10.30
2022-11-19T12:45:42.294Z,10.30
2022-11-19T12:48:37.727Z,10.30
2022-11-19T12:51:12.839Z,10.30
2022-11-19T12:53:54.224Z,10.30
2022-11-19T12:56:36.479Z,10.30
2022-11-19T12:59:16.978Z,10.20
2022-11-19T13:01:49.019Z,10.20
2022-11-19T13:04:24.697Z,10.10
2022-11-19T13:06:57.073Z,10.10
2022-11-19T13:09:33.650Z,10.10
2022-11-19T13:12:06.357Z,10.00
2022-11-19T13:14:40.246Z,10.00
2022-11-19T13:17:17.597Z,10.00
2022-11-19T13:19:50.294Z,10.00
2022-11-19T13:22:21.475Z,10.00
2022-11-19T13:24:55.590Z,10.00
2022-11-19T13:27:27.024Z,10.00
2022-11-19T13:29:59.859Z,10.00
2022-11-19T13:32:35.735Z,9.90
2022-11-19T13:35:14.771Z,9.90
2022-11-19T13:37:56.907Z,9.90
2022-11-19T13:40:31.790Z,9.90
2022-11-19T13:43:31.593Z,9.90
2022-11-19T13:46:09.145Z,9.90
2022-11-19T13:48:42.226Z,9.90
2022-11-19T13:51:23.287Z,9.80
2022-11-19T13:53:51.431Z,9.80
2022-11-19T13:56:22.402Z,9.80
2022-11-19T13:58:52.445Z,9.80
2022-11-19T14:01:46.942Z,9.90
2022-11-19T14:04:27.036Z,9.80
2022-11-19T14:07:12.164Z,9.80
2022-11-19T14:09:50.048Z,9.80
2022-11-19T14:12:44.655Z,9.80
2022-11-19T14:15:47.204Z,9.80
2022-11-19T14:18:42.510Z,9.80
2022-11-19T14:22:05.834Z,9.70
2022-11-19T14:25:14.702Z,9.80
2022-11-19T14:27:44.632Z,9.70
2022-11-19T14:30:18.536Z,9.70
2022-11-19T14:32:52.103Z,9.70
2022-11-19T14:35:41.781Z,9.70
2022-11-19T14:38:38.191Z,9.70
2022-11-19T14:41:29.465Z,9.70
2022-11-19T14:44:14.033Z,9.70
2022-11-19T14:46:44.204Z,9.70
2022-11-19T14:49:34.666Z,9.70
2022-11-19T14:52:03.875Z,9.70
2022-11-19T14:54:40.397Z,9.70
2022-11-19T14:57:17.050Z,9.70
2022-11-19T14:59:52.632Z,9.70
2022-11-19T15:02:26.066Z,9.80
2022-11-19T15:04:58.608Z,9.70
2022-11-19T15:07:39.443Z,9.80
2022-11-19T15:10:30.186Z,9.80
2022-11-19T15:13:27.752Z,9.80
2022-11-19T15:16:09.133Z,9.80
2022-11-19T15:19:17.652Z,9.80
2022-11-19T15:22:08.346Z,9.80
2022-11-19T15:24:53.091Z,9.70
2022-11-19T15:27:32.441Z,9.80
2022-11-19T15:30:17.503Z,9.70
2022-11-19T15:33:18.220Z,9.70
2022-11-19T15:36:21.888Z,9.60
2022-11-19T15:38:57.006Z,9.70
2022-11-19T15:41:26.862Z,9.70
2022-11-19T15:43:58.103Z,9.70
2022-11-19T15:46:35.389Z,9.60
2022-11-19T15:49:08.876Z,9.60
2022-11-19T15:51:55.489Z,9.60
2022-11-19T15:54:29.596Z,9.60
2022-11-19T15:57:01.157Z,9.60
2022-11-19T15:59:30.500Z,9.60
2022-11-19T16:02:01.008Z,9.60
2022-11-19T16:04:37.231Z,9.60
2022-11-19T16:07:09.719Z,9.60
2022-11-19T16:09:38.947Z,9.60
2022-11-19T16:12:24.599Z,9.60
2022-11-19T16:15:11.653Z,9.50
2022-11-19T16:17:44.553Z,9.50
2022-11-19T16:20:23.907Z,9.50
2022-11-19T16:22:57.291Z,9.40
2022-11-19T16:25:30.373Z,9.40
2022-11-19T16:28:01.267Z,9.40
2022-11-19T16:30:34.426Z,9.30
2022-11-19T16:33:02.899Z,9.30
2022-11-19T16:35:32.877Z,9.30
2022-11-19T16:38:02.999Z,9.30
2022-11-19T16:40:53.106Z,9.30
2022-11-19T16:43:20.689Z,9.30
2022-11-19T16:45:48.650Z,9.30
2022-11-19T16:48:53.708Z,9.30
2022-11-19T16:51:51.437Z,9.20
2022-11-19T16:54:47.152Z,9.20
2022-11-19T16:57:18.069Z,9.20
2022-11-19T16:59:49.759Z,9.20
2022-11-19T17:02:20.363Z,9.20
2022-11-19T17:04:50.330Z,9.20
2022-11-19T17:07:24.628Z,9.30
2022-11-19T17:10:10.434Z,9.30
2022-11-19T17:12:39.440Z,9.30
2022-11-19T17:15:40.139Z,9.30
2022-11-19T17:18:18.971Z,9.40
2022-11-19T17:20:52.555Z,9.30
2022-11-19T17:23:22.412Z,9.30
2022-11-19T17:25:54.709Z,9.30
2022-11-19T17:28:29.890Z,9.30
2022-11-19T17:30:58.470Z,9.30
2022-11-19T17:33:26.465Z,9.20
2022-11-19T17:35:54.347Z,9.20
2022-11-19T17:38:27.052Z,9.20
2022-11-19T17:40:58.383Z,9.20
2022-11-19T17:43:48.766Z,9.10
2022-11-19T17:46:17.398Z,9.10
2022-11-19T17:48:47.213Z,9.10
2022-11-19T17:51:16.923Z,9.20
2022-11-19T17:53:45.119Z,9.10
2022-11-19T17:56:20.438Z,9.10
2022-11-19T17:58:48.493Z,9.10
2022-11-19T18:01:17.537Z,9.10
2022-11-19T18:03:46.366Z,9.10
2022-11-19T18:06:15.629Z,9.10
2022-11-19T18:08:44.181Z,9.10
2022-11-19T18:11:15.250Z,9.10
2022-11-19T18:13:43.994Z,9.10
2022-11-19T18:16:14.409Z,9.00
2022-11-19T18:18:42.360Z,9.00
2022-11-19T18:21:12.074Z,9.00
2022-11-19T18:23:40.808Z,9.00
2022-11-19T18:26:10.729Z,9.00
2022-11-19T18:28:42.540Z,9.00
2022-11-19T18:31:16.698Z,9.00
2022-11-19T18:33:45.291Z,8.90
2022-11-19T18:36:13.414Z,8.90
2022-11-19T18:38:41.408Z,8.90
2022-11-19T18:41:11.177Z,8.90
2022-11-19T18:43:58.562Z,8.80
2022-11-19T18:46:26.605Z,8.80
2022-11-19T18:48:54.751Z,8.80
2022-11-19T18:51:25.187Z,8.80
2022-11-19T18:53:53.283Z,8.80
2022-11-19T18:56:21.272Z,8.80
2022-11-19T18:58:50.640Z,8.80
2022-11-19T19:01:18.592Z,8.80
2022-11-19T19:03:46.832Z,8.80
2022-11-19T19:06:15.752Z,8.80
2022-11-19T19:08:43.949Z,8.80
2022-11-19T19:11:29.794Z,8.80
2022-11-19T19:13:59.264Z,8.80
2022-11-19T19:16:27.522Z,8.80
2022-11-19T19:18:55.507Z,8.80
2022-11-19T19:21:24.182Z,8.80
2022-11-19T19:23:52.066Z,8.80
2022-11-19T19:26:20.206Z,8.80
2022-11-19T19:28:51.491Z,8.80
2022-11-19T19:31:21.202Z,8.80
2022-11-19T19:33:49.410Z,8.80
2022-11-19T19:36:18.438Z,8.80
2022-11-19T19:38:46.731Z,8.80
2022-11-19T19:41:17.669Z,8.80
2022-11-19T19:43:47.565Z,8.80
2022-11-19T19:46:18.320Z,8.70
2022-11-19T19:48:49.628Z,8.80
2022-11-19T19:51:18.998Z,8.80
2022-11-19T19:53:47.355Z,8.80
2022-11-19T19:56:16.932Z,8.80
2022-11-19T19:58:45.920Z,8.80
2022-11-19T20:01:16.288Z,8.70
2022-11-19T20:03:45.018Z,8.80
2022-11-19T20:06:16.301Z,8.80
2022-11-19T20:08:44.506Z,8.70
2022-11-19T20:11:13.970Z,8.70
2022-11-19T20:13:42.853Z,8.70
2022-11-19T20:16:17.674Z,8.70
2022-11-19T20:18:47.416Z,8.60
2022-11-19T20:21:18.643Z,8.70
2022-11-19T20:23:46.635Z,8.70
2022-11-19T20:26:16.506Z,8.70
2022-11-19T20:28:44.870Z,8.70
2022-11-19T20:31:15.077Z,8.70
2022-11-19T20:33:44.265Z,8.70
2022-11-19T20:36:15.474Z,8.70
2022-11-19T20:38:46.117Z,8.70
2022-11-19T20:41:30.066Z,8.70
2022-11-19T20:44:16.164Z,8.70
2022-11-19T20:46:44.494Z,8.80
2022-11-19T20:49:16.919Z,8.80
2022-11-19T20:51:46.110Z,8.80
2022-11-19T20:54:15.375Z,8.80
2022-11-19T20:56:43.814Z,8.80
2022-11-19T20:59:13.301Z,8.80
2022-11-19T21:01:41.364Z,8.80
2022-11-19T21:04:11.145Z,8.70
2022-11-19T21:06:39.144Z,8.80
2022-11-19T21:09:07.343Z,8.70
2022-11-19T21:11:36.815Z,8.70
2022-11-19T21:14:05.196Z,8.70
2022-11-19T21:16:33.446Z,8.70
2022-11-19T21:19:02.304Z,8.70
2022-11-19T21:21:30.194Z,8.70
2022-11-19T21:23:58.118Z,8.70
2022-11-19T21:26:28.011Z,8.70
2022-11-19T21:28:59.217Z,8.70
2022-11-19T21:31:38.049Z,8.70
2022-11-19T21:34:07.086Z,8.70
2022-11-19T21:36:35.520Z,8.60
2022-11-19T21:39:03.945Z,8.60
2022-11-19T21:41:32.059Z,8.60
2022-11-19T21:44:02.272Z,8.60
2022-11-19T21:46:30.389Z,8.60
2022-11-19T21:48:58.434Z,8.60
2022-11-19T21:51:26.460Z,8.60
2022-11-19T21:53:55.821Z,8.50
2022-11-19T21:56:23.819Z,8.50
2022-11-19T21:58:51.939Z,8.50
2022-11-19T22:01:21.798Z,8.50
2022-11-19T22:03:50.049Z,8.50
2022-11-19T22:06:18.065Z,8.50
2022-11-19T22:08:45.990Z,8.50
2022-11-19T22:11:29.555Z,8.50
2022-11-19T22:13:58.289Z,8.50
2022-11-19T22:16:27.914Z,8.50
2022-11-19T22:18:55.817Z,8.50
2022-11-19T22:21:23.927Z,8.50
2022-11-19T22:23:52.701Z,8.50
2022-11-19T22:26:20.806Z,8.40
2022-11-19T22:28:48.729Z,8.40
2022-11-19T22:31:16.993Z,8.40
2022-11-19T22:33:47.758Z,8.40
2022-11-19T22:36:15.715Z,8.40
2022-11-19T22:38:43.643Z,8.40
2022-11-19T22:41:13.566Z,8.40
2022-11-19T22:43:43.900Z,8.40
2022-11-19T22:46:13.664Z,8.30
2022-11-19T22:48:42.130Z,8.30
2022-11-19T22:51:15.143Z,8.30
2022-11-19T22:53:43.870Z,8.30
2022-11-19T22:56:13.804Z,8.30
2022-11-19T22:58:42.576Z,8.30
2022-11-19T23:01:16.595Z,8.30
2022-11-19T23:03:44.673Z,8.30
2022-11-19T23:06:14.289Z,8.30
2022-11-19T23:08:42.418Z,8.30
2022-11-19T23:11:10.613Z,8.30
2022-11-19T23:13:40.152Z,8.30
2022-11-19T23:16:10.815Z,8.30
2022-11-19T23:18:41.061Z,8.30
2022-11-19T23:21:11.084Z,8.20
2022-11-19T23:23:40.333Z,8.20
2022-11-19T23:26:09.923Z,8.20
2022-11-19T23:28:38.727Z,8.20
2022-11-19T23:31:08.322Z,8.20
2022-11-19T23:33:36.512Z,8.20
2022-11-19T23:36:05.698Z,8.20
2022-11-19T23:38:35.100Z,8.20
2022-11-19T23:41:06.104Z,8.20
2022-11-19T23:43:34.622Z,8.20
2022-11-19T23:46:07.175Z,8.30
2022-11-19T23:48:35.629Z,8.30
2022-11-19T23:51:04.144Z,8.30
2022-11-19T23:53:32.070Z,8.30
2022-11-19T23:56:00.564Z,8.30
2022-11-19T23:58:29.874Z,8.20
